KLCH/LCH METAR and TAF weather

Enter ICAO airport designator
Station Type Date Time Source
KLCH METAR 2018/12/11 21:53 UTC NOAA

KLCH 112153Z 18006KT 10SM CLR 15/00 A3034 RMK AO2 SLP280 T01500000


Station Type Date Time Source
KLCH Decoded METAR 2018/12/11 21:53 UTC NOAA

LAKE CHARLES REGIONAL AIRPORT , LA, United States (KLCH) 30-12N 093-23W 3M
Dec 11, 2018 - 04:53 PM EST / 2018.12.11 2153 UTC
Wind: from the S (180 degrees) at 7 MPH (6 KT):0
Visibility: 10 mile(s):0
Sky conditions: clear
Temperature: 59.0 F (15.0 C)
Dew Point: 32.0 F (0.0 C)
Relative Humidity: 35%
Pressure (altimeter): 30.34 in. Hg (1027 hPa)
ob: KLCH 112153Z 18006KT 10SM CLR 15/00 A3034 RMK AO2 SLP280 T01500000
cycle: 22

Station Type Date Time Source
KLCH TAF 2018/12/11 18:22 UTC NOAA

TAF KLCH 111720Z 1118/1218 17006KT P6SM SKC
FM120000 VRB03KT P6SM SCT250


Example: see airport list